Aérodrome :
LOGIN :

S'inscrire | Disclaimer

   EN    FR    IT 

 










Légende :    VFR   VFR Marginal   IFR   IFR Intensif   IFR Très Intensif
Visi : 
Plafond : 
>= 8 km
>= 3000ft
5 à 8 km
1000 à 3000 ft
1500m à 5 km
500 à 1000 ft
800 à 1500m
200 à 500 ft
< 800m
< 200 ft
Symboles :   Orages  Brouillard  Fortes neiges  Fortes précipitations  Vent > 20 kt
SIGMETs :   Divers  Orages  Givrage  Turbulence  Onde Orograph.  Cendres Volcan.







- Altitude de l'aérodrome : 16 ft
- Code IATA : AAE


DABB - Annaba-Rabah Bitat

DERNIER METAR :
  • 190800Z 24004KT 5000 FEW020 BKN200 19/16 Q1015

METARs EXPIRÉS :
  • 190730Z 25003KT 5000 FEW020 BKN200 19/17 Q1014
  • 190700Z 18002KT 5000 NSC 17/16 Q1014
  • 190630Z 19001KT 5000 NSC 17/16 Q1014
  • 190600Z 25002KT 5000 NSC 16/16 Q1013
  • 190530Z 23003KT 5000 NSC 16/15 Q1012
  • 190500Z 21002KT 6000 NSC 16/15 Q1012

TAF TAF DABB
Valide du 19 à 06h jusqu'au 20 à 06h UTC


190500Z 1906/2006 20008KT 7000 NSC
BECMG 1908/1910 06008KT
Pas de NOTAMs connus pour ce terrain.



MET'MAP, la Météo Aéronautique d'un coup d'oeil ! - Copyright ORBIFLY Décembre 2007 - Disclaimer

ORBIFLY MET'MAP TEAM :

Programmation & Développement : Alexandra Zaïnal
Conception & Développement : Baudouin d'Aumeries
Co-Programmation & Développement : Marc-Olivier Méhu
Soutien technique & logistique : Manuel Goepfert

Contact : metmap@orbifly.com




SOURCES & CREDITS :

   NOAA